Zhe Pu Tuo 2012 — BKRA5 — position and weather

sailwx.info

Track history (hours):
 
Tides and Currents Weather Stations Pressure Air Temp Water Temp Dewpoint Dewpoint Depression Visibility Wind Speed Wind Dir Waves Ship Positions

Zhe Pu Tuo 2012

Last reported at 2014-Dec-21 16:26 UTC. Time now 2014-Dec-21 17:18 UTC.
Position N 36°48' E 122°29'.

Length 57 m; draft 3.7 m.

Type: Tug. MMSI: 412763040.

Date/timePositionNaut miles runAvg speedWind from/ knotsBaromVisibWave heightAir tempDewpointWater temp
2014-Dec-21 16:26N 36°48' E 122°29'0 0.0
2014-Dec-21 15:26N 36°48' E 122°29'0 0.0
2014-Dec-21 14:32N 36°48' E 122°29'0 0.1
2014-Dec-21 13:14N 36°48' E 122°29'0 0.0
2014-Dec-21 12:26N 36°48' E 122°29'0 0.0
2014-Dec-21 11:26N 36°48' E 122°29'0 0.0
2014-Dec-21 10:33N 36°48' E 122°29'5 5.4
2014-Dec-21 09:33N 36°43' E 122°31'368 7.9
2014-Dec-19 11:16N 30°36' E 122°13'6 8.8
2014-Dec-19 10:33N 30°31' E 122°09'25 7.3
2014-Dec-19 07:07N 30°10' E 121°52'6 6.7
2014-Dec-19 06:09N 30°04' E 121°55'3 5.1
2014-Dec-19 05:30N 30°02' E 121°57'6 6.3
2014-Dec-19 04:33N 29°57' E 122°01'6 5.6
2014-Dec-19 03:33N 29°56' E 122°07'6 6.3
2014-Dec-19 02:33N 29°55' E 122°14'3 2.7
2014-Dec-19 01:33N 29°58' E 122°14'0 0.0
2014-Dec-19 00:33N 29°58' E 122°14'0 0.0
2014-Dec-18 23:28N 29°58' E 122°14'0 0.0
2014-Dec-18 11:22N 29°58' E 122°14'0 0.0
2014-Dec-18 10:33N 29°58' E 122°14'0 0.0
2014-Dec-18 08:21N 29°58' E 122°14'0 0.0
2014-Dec-18 07:27N 29°58' E 122°14'0 0.0
2014-Dec-18 06:21N 29°58' E 122°14'0 0.0
2014-Dec-18 05:21N 29°58' E 122°14'0 0.0
2014-Dec-18 04:22N 29°58' E 122°14'0 0.0
2014-Dec-18 03:33N 29°58' E 122°14'0 0.0
2014-Dec-18 02:27N 29°58' E 122°14'0 0.0
2014-Dec-18 01:27N 29°58' E 122°14'0 0.0
2014-Dec-18 00:27N 29°58' E 122°14'0 0.0
2014-Dec-17 23:33N 29°58' E 122°14'0 0.0
2014-Dec-17 12:23N 29°58' E 122°14'0 0.0
2014-Dec-17 11:23N 29°58' E 122°14'0 0.0
2014-Dec-17 10:17N 29°58' E 122°14'0 0.0
2014-Dec-17 09:23N 29°58' E 122°14'0 0.0
2014-Dec-17 08:29N 29°58' E 122°14'0 0.0
2014-Dec-17 07:05N 29°58' E 122°14'0 0.0
2014-Dec-17 06:23N 29°58' E 122°14'0 0.0
2014-Dec-17 05:23N 29°58' E 122°14'0 0.0
2014-Dec-17 04:29N 29°58' E 122°14'0 0.0
2014-Dec-17 03:29N 29°58' E 122°14'0 0.0
2014-Dec-17 02:33N 29°58' E 122°14'0 0.0
2014-Dec-17 01:33N 29°58' E 122°14'0 0.0
2014-Dec-17 00:33N 29°58' E 122°14'0 0.0
2014-Dec-16 23:33N 29°58' E 122°14'0 0.0
2014-Dec-16 12:33N 29°58' E 122°14'0 0.0
2014-Dec-16 11:33N 29°58' E 122°14'0 0.0
2014-Dec-16 10:34N 29°58' E 122°14'0 0.0
2014-Dec-16 09:33N 29°58' E 122°14'0 0.0
2014-Dec-16 08:33N 29°58' E 122°14'0 0.0
2014-Dec-16 07:33N 29°58' E 122°14'0 0.0
2014-Dec-16 06:34N 29°58' E 122°14'0 0.0
2014-Dec-16 05:33N 29°58' E 122°14'0 0.0
2014-Dec-16 04:32N 29°58' E 122°14'  
2014-Dec-13 10:33N 29°58' E 122°14'0 0.0
2014-Dec-13 09:33N 29°58' E 122°14'0 0.0
2014-Dec-13 08:34N 29°58' E 122°14'0 0.0
2014-Dec-13 07:33N 29°58' E 122°14'0 0.1
2014-Dec-13 06:33N 29°58' E 122°14'0 0.0
2014-Dec-13 05:33N 29°58' E 122°14'0 0.0
2014-Dec-13 04:33N 29°58' E 122°14'0 0.0
2014-Dec-13 03:33N 29°58' E 122°14'0 0.0
2014-Dec-13 02:34N 29°58' E 122°14'0 0.1
2014-Dec-13 01:33N 29°58' E 122°14'0 0.0
2014-Dec-13 00:33N 29°58' E 122°14'0 0.0
2014-Dec-12 10:33N 29°58' E 122°14'0 0.0
2014-Dec-12 09:33N 29°58' E 122°14'0 0.0
2014-Dec-12 08:33N 29°58' E 122°14'0 0.0
2014-Dec-12 07:33N 29°58' E 122°14'0 0.0
2014-Dec-12 06:33N 29°58' E 122°14'0 0.0
2014-Dec-12 05:33N 29°58' E 122°14'  
Track history (hours):
 
Tides and Currents Weather Stations Pressure Air Temp Water Temp Dewpoint Dewpoint Depression Visibility Wind Speed Wind Dir Waves Ship Positions

Zhe Pu Tuo 2012

Last reported at 2014-Dec-21 16:26 UTC. Time now 2014-Dec-21 17:18 UTC.
Position N 36°48' E 122°29'.

Length 57 m; draft 3.7 m.

Type: Tug. MMSI: 412763040.

Date/timePositionNaut miles runAvg speedWind from/ knotsBaromVisibWave heightAir tempDewpointWater temp
2014-Dec-21 16:26N 36°48' E 122°29'0 0.0
2014-Dec-21 15:26N 36°48' E 122°29'0 0.0
2014-Dec-21 14:32N 36°48' E 122°29'0 0.1
2014-Dec-21 13:14N 36°48' E 122°29'0 0.0
2014-Dec-21 12:26N 36°48' E 122°29'0 0.0
2014-Dec-21 11:26N 36°48' E 122°29'0 0.0
2014-Dec-21 10:33N 36°48' E 122°29'5 5.4
2014-Dec-21 09:33N 36°43' E 122°31'368 7.9
2014-Dec-19 11:16N 30°36' E 122°13'6 8.8
2014-Dec-19 10:33N 30°31' E 122°09'25 7.3
2014-Dec-19 07:07N 30°10' E 121°52'6 6.7
2014-Dec-19 06:09N 30°04' E 121°55'3 5.1
2014-Dec-19 05:30N 30°02' E 121°57'6 6.3
2014-Dec-19 04:33N 29°57' E 122°01'6 5.6
2014-Dec-19 03:33N 29°56' E 122°07'6 6.3
2014-Dec-19 02:33N 29°55' E 122°14'3 2.7
2014-Dec-19 01:33N 29°58' E 122°14'0 0.0
2014-Dec-19 00:33N 29°58' E 122°14'0 0.0
2014-Dec-18 23:28N 29°58' E 122°14'0 0.0
2014-Dec-18 11:22N 29°58' E 122°14'0 0.0
2014-Dec-18 10:33N 29°58' E 122°14'0 0.0
2014-Dec-18 08:21N 29°58' E 122°14'0 0.0
2014-Dec-18 07:27N 29°58' E 122°14'0 0.0
2014-Dec-18 06:21N 29°58' E 122°14'0 0.0
2014-Dec-18 05:21N 29°58' E 122°14'0 0.0
2014-Dec-18 04:22N 29°58' E 122°14'0 0.0
2014-Dec-18 03:33N 29°58' E 122°14'0 0.0
2014-Dec-18 02:27N 29°58' E 122°14'0 0.0
2014-Dec-18 01:27N 29°58' E 122°14'0 0.0
2014-Dec-18 00:27N 29°58' E 122°14'0 0.0
2014-Dec-17 23:33N 29°58' E 122°14'0 0.0
2014-Dec-17 12:23N 29°58' E 122°14'0 0.0
2014-Dec-17 11:23N 29°58' E 122°14'0 0.0
2014-Dec-17 10:17N 29°58' E 122°14'0 0.0
2014-Dec-17 09:23N 29°58' E 122°14'0 0.0
2014-Dec-17 08:29N 29°58' E 122°14'0 0.0
2014-Dec-17 07:05N 29°58' E 122°14'0 0.0
2014-Dec-17 06:23N 29°58' E 122°14'0 0.0
2014-Dec-17 05:23N 29°58' E 122°14'0 0.0
2014-Dec-17 04:29N 29°58' E 122°14'0 0.0
2014-Dec-17 03:29N 29°58' E 122°14'0 0.0
2014-Dec-17 02:33N 29°58' E 122°14'0 0.0
2014-Dec-17 01:33N 29°58' E 122°14'0 0.0
2014-Dec-17 00:33N 29°58' E 122°14'0 0.0
2014-Dec-16 23:33N 29°58' E 122°14'0 0.0
2014-Dec-16 12:33N 29°58' E 122°14'0 0.0
2014-Dec-16 11:33N 29°58' E 122°14'0 0.0
2014-Dec-16 10:34N 29°58' E 122°14'0 0.0
2014-Dec-16 09:33N 29°58' E 122°14'0 0.0
2014-Dec-16 08:33N 29°58' E 122°14'0 0.0
2014-Dec-16 07:33N 29°58' E 122°14'0 0.0
2014-Dec-16 06:34N 29°58' E 122°14'0 0.0
2014-Dec-16 05:33N 29°58' E 122°14'0 0.0
2014-Dec-16 04:32N 29°58' E 122°14'  
2014-Dec-13 10:33N 29°58' E 122°14'0 0.0
2014-Dec-13 09:33N 29°58' E 122°14'0 0.0
2014-Dec-13 08:34N 29°58' E 122°14'0 0.0
2014-Dec-13 07:33N 29°58' E 122°14'0 0.1
2014-Dec-13 06:33N 29°58' E 122°14'0 0.0
2014-Dec-13 05:33N 29°58' E 122°14'0 0.0
2014-Dec-13 04:33N 29°58' E 122°14'0 0.0
2014-Dec-13 03:33N 29°58' E 122°14'0 0.0
2014-Dec-13 02:34N 29°58' E 122°14'0 0.1
2014-Dec-13 01:33N 29°58' E 122°14'0 0.0
2014-Dec-13 00:33N 29°58' E 122°14'0 0.0
2014-Dec-12 10:33N 29°58' E 122°14'0 0.0
2014-Dec-12 09:33N 29°58' E 122°14'0 0.0
2014-Dec-12 08:33N 29°58' E 122°14'0 0.0
2014-Dec-12 07:33N 29°58' E 122°14'0 0.0
2014-Dec-12 06:33N 29°58' E 122°14'0 0.0
2014-Dec-12 05:33N 29°58' E 122°14'  

Dump ship's entire track history